createdAt,value
2023-01-29T00:00:21.849Z,2.10
2023-01-29T00:02:50.464Z,1.80
2023-01-29T00:05:28.531Z,3.50
2023-01-29T00:10:27.460Z,1.60
2023-01-29T00:12:55.960Z,1.70
2023-01-29T00:15:26.304Z,1.60
2023-01-29T10:01:38.241Z,0.10
2023-01-29T10:04:29.797Z,0.30
2023-01-29T10:07:08.021Z,0.40
2023-01-29T10:10:12.167Z,0.50
2023-01-29T10:13:00.340Z,0.20
2023-01-29T10:15:48.611Z,0.30
2023-01-29T10:18:45.378Z,0.20
2023-01-29T10:21:29.438Z,0.30
2023-01-29T10:24:09.344Z,0.50
2023-01-29T10:26:38.759Z,0.50
2023-01-29T10:29:09.483Z,0.60
2023-01-29T10:31:41.304Z,0.70
2023-01-29T10:34:24.885Z,0.70
2023-01-29T10:36:53.143Z,0.70
2023-01-29T10:39:23.155Z,0.70
2023-01-29T10:42:05.738Z,1.00
2023-01-29T10:44:48.839Z,1.30
2023-01-29T10:47:41.170Z,1.30
2023-01-29T10:53:20.143Z,1.30
2023-01-29T10:55:59.297Z,1.40
2023-01-29T10:58:35.725Z,1.50
2023-01-29T11:03:35.327Z,1.00
2023-01-29T11:06:12.459Z,1.00
2023-01-29T11:09:22.554Z,1.30
2023-01-29T11:15:04.204Z,1.10
2023-01-29T11:17:32.706Z,1.20
2023-01-29T11:20:02.480Z,1.20
2023-01-29T14:24:23.764Z,1.90
2023-01-29T14:26:56.358Z,1.90
2023-01-29T14:29:34.674Z,1.90
2023-01-29T14:32:22.320Z,2.10
2023-01-29T14:34:52.010Z,2.20
2023-01-29T14:37:25.403Z,2.40
2023-01-29T14:39:58.732Z,2.50
2023-01-29T14:42:31.037Z,2.50
2023-01-29T14:45:02.175Z,2.60
2023-01-29T14:47:55.822Z,2.10
2023-01-29T14:51:00.851Z,2.30
2023-01-29T14:53:57.492Z,2.50
2023-01-29T14:56:33.337Z,2.50
2023-01-29T14:59:14.153Z,2.80
2023-01-29T15:01:49.709Z,3.10
2023-01-29T15:04:22.573Z,3.30
2023-01-29T15:10:13.446Z,3.10
2023-01-29T15:12:56.712Z,2.70
2023-01-29T15:15:35.529Z,2.30
2023-01-29T15:20:37.447Z,2.10
2023-01-29T15:36:07.310Z,2.10
2023-01-29T15:41:19.011Z,1.90
2023-01-29T15:43:59.031Z,1.90
2023-01-29T15:46:30.207Z,2.00
2023-01-29T15:49:02.425Z,2.80
2023-01-29T15:51:30.912Z,2.00
2023-01-29T15:54:04.732Z,1.90
2023-01-29T15:56:37.281Z,1.90
2023-01-29T15:59:13.705Z,1.70
2023-01-29T16:01:43.246Z,1.70
2023-01-29T16:04:19.039Z,1.80
2023-01-29T16:06:49.958Z,1.90
2023-01-29T16:09:23.718Z,1.80
2023-01-29T16:12:00.824Z,1.90
2023-01-29T16:14:32.823Z,1.90
2023-01-29T16:27:15.355Z,1.60
2023-01-29T16:29:52.804Z,1.70
2023-01-29T16:32:22.169Z,1.70
2023-01-29T16:34:52.450Z,1.50
2023-01-29T16:37:26.333Z,1.70
2023-01-29T16:39:59.090Z,1.80
2023-01-29T16:42:30.643Z,1.80
2023-01-29T16:45:06.072Z,1.80
2023-01-29T16:47:36.371Z,1.60
2023-01-29T16:50:28.524Z,1.70
2023-01-29T16:53:01.324Z,1.70
2023-01-29T16:55:36.801Z,1.50
2023-01-29T16:58:13.715Z,1.50
2023-01-29T17:00:48.582Z,1.30
2023-01-29T17:03:18.796Z,1.30
2023-01-29T17:05:51.844Z,1.20
2023-01-29T17:08:30.749Z,1.10
2023-01-29T17:11:00.606Z,0.50
2023-01-29T17:13:38.124Z,0.90
2023-01-29T17:16:24.117Z,0.80
2023-01-29T17:28:56.666Z,0.70
2023-01-29T17:41:32.825Z,0.50
2023-01-29T17:46:32.081Z,0.40
2023-01-29T17:54:00.009Z,0.30
2023-01-29T18:06:31.827Z,0.40
2023-01-29T18:16:48.984Z,0.20
2023-01-29T18:19:25.568Z,0.10
2023-01-29T18:26:57.523Z,0.00
2023-01-29T18:29:30.726Z,0.30
2023-01-29T18:32:00.784Z,0.20
2023-01-29T18:34:32.185Z,0.00
2023-01-29T18:39:30.298Z,-0.20
2023-01-29T19:15:00.883Z,0.30
2023-01-29T19:22:35.166Z,0.00
2023-01-29T19:35:14.515Z,0.90
2023-01-29T19:37:44.036Z,1.00
2023-01-29T19:40:15.034Z,1.10
2023-01-29T19:42:45.098Z,0.80
2023-01-29T19:58:05.258Z,1.60
2023-01-29T20:03:03.573Z,1.40
